Bretagne — FNBR — position and weather

sailwx.info

Track history (hours):
 
Tides and Currents Weather Stations Pressure Air Temp Water Temp Dewpoint Dewpoint Depression Visibility Wind Speed Wind Dir Waves Ship Positions

Bretagne

Operator: Brittany Ferries

Last reported at 2020-Jan-18 14:55 UTC. Time now 2020-Jan-18 15:20 UTC.
Position N 48°48' W 002°02'.

Length 151 m; beam 27 m.

Type: Ship. MMSI: 227286000.

Date/timePositionNaut miles runAvg speedWind from/ knotsBaromVisibWave heightAir tempDewpointWater temp
2020-Jan-18 14:55N 48°48' W 002°02'7 0.9
2020-Jan-18 06:28N 48°48' W 002°13'511.5
2020-Jan-18 06:00N 48°52' W 002°18'2814.1
2020-Jan-18 04:01N 49°19' W 002°27'2814.0
2020-Jan-18 02:01N 49°43' W 002°04'1111.1
2020-Jan-18 01:01N 49°49' W 001°49'5911.8
2020-Jan-17 20:00N 50°40' W 001°04'9 5.6
2020-Jan-17 18:27N 50°49' W 001°06'0 0.0
2020-Jan-17 17:28N 50°49' W 001°06'0 0.0
2020-Jan-17 16:27N 50°49' W 001°06'0 0.0
2020-Jan-17 14:58N 50°49' W 001°06'0 0.0
2020-Jan-17 11:27N 50°49' W 001°06'2 0.7
2020-Jan-17 08:30N 50°47' W 001°06'15 9.8
2020-Jan-17 07:00N 50°33' W 001°12'5311.8
2020-Jan-17 02:31N 49°48' W 001°57'2211.2
2020-Jan-17 00:31N 49°28' W 002°13'50 4.1
2020-Jan-16 12:22N 48°38' W 002°02'0 0.0
2020-Jan-16 11:58N 48°38' W 002°02'0 0.0
2020-Jan-16 10:55N 48°38' W 002°02'41 6.4
2020-Jan-16 04:31N 49°15' W 002°31'612.1
2020-Jan-16 04:00N 49°21' W 002°29'815.4
2020-Jan-16 03:31N 49°24' W 002°18'1919.0
2020-Jan-16 02:31N 49°41' W 002°04'1717.1
2020-Jan-16 01:31N 49°54' W 001°47'3012.8
2020-Jan-15 23:08N 50°19' W 001°22'812.6
2020-Jan-15 22:29N 50°26' W 001°13'23 9.4
2020-Jan-15 20:00N 50°49' W 001°06'0 0.2
2020-Jan-15 19:30N 50°49' W 001°06'2 1.1
2020-Jan-15 18:00N 50°47' W 001°06'8 1.9
2020-Jan-15 14:00N 50°40' W 001°04'2 1.4
2020-Jan-15 12:30N 50°38' W 001°06'4 4.3
2020-Jan-15 11:30N 50°42' W 001°03'7 3.6
2020-Jan-15 09:30N 50°49' W 001°06'0 0.0
2020-Jan-15 08:30N 50°49' W 001°06'5811.1
2020-Jan-15 03:16N 49°57' W 001°47'1114.4
2020-Jan-15 02:30N 49°49' W 001°59'1414.3
2020-Jan-15 01:30N 49°36' W 002°10'2315.5
2020-Jan-15 00:00N 49°16' W 002°27'2911.7
2020-Jan-14 21:30N 48°47' W 002°31'7 9.3
2020-Jan-14 20:47N 48°45' W 002°21'6 0.4
2020-Jan-14 06:00N 48°50' W 002°16'917.2
2020-Jan-14 05:30N 48°57' W 002°23'12013.3
2020-Jan-13 20:31N 50°46' W 001°06'2 0.8
2020-Jan-13 18:00N 50°44' W 001°05'1212.4
2020-Jan-13 17:00N 50°32' W 001°09'8617.3
2020-Jan-13 12:00N 49°19' W 002°20'2120.6
2020-Jan-13 11:00N 48°59' W 002°23'18 4.0
2020-Jan-13 06:30N 48°44' W 002°07'2315.1
2020-Jan-13 05:01N 49°03' W 002°25'815.5
2020-Jan-13 04:31N 49°11' W 002°27'714.9
2020-Jan-13 04:01N 49°18' W 002°28'611.8
2020-Jan-13 03:31N 49°23' W 002°23'1912.9
2020-Jan-13 02:00N 49°39' W 002°06'815.3
2020-Jan-13 01:30N 49°46' W 002°00'6913.7
2020-Jan-12 20:31N 50°44' W 001°03'5 2.5
2020-Jan-12 18:28N 50°49' W 001°06'0 0.0
2020-Jan-12 17:28N 50°49' W 001°06'0 0.0
2020-Jan-12 16:28N 50°49' W 001°06'0 0.0
2020-Jan-12 15:58N 50°49' W 001°06'0 0.0
2020-Jan-12 15:28N 50°49' W 001°06'0 0.0
2020-Jan-12 12:28N 50°49' W 001°06'0 0.0
2020-Jan-12 11:28N 50°49' W 001°06'0 0.0
2020-Jan-12 10:28N 50°49' W 001°06'0 0.0
2020-Jan-12 09:00N 50°49' W 001°06'1 1.7
2020-Jan-12 08:30N 50°48' W 001°07'2312.3
2020-Jan-12 06:37N 50°26' W 001°16'5013.8
2020-Jan-12 03:00N 49°45' W 002°02'17 8.6
2020-Jan-12 01:00N 49°30' W 002°12'10 9.8
2020-Jan-12 00:00N 49°21' W 002°21'1414.2
2020-Jan-11 23:00N 49°11' W 002°35'815.6
2020-Jan-11 22:30N 49°04' W 002°40'1514.9
2020-Jan-11 21:30N 48°49' W 002°41'712.2
2020-Jan-11 20:57N 48°47' W 002°31'21 2.1
2020-Jan-11 10:53N 48°38' W 002°02'8 1.8
2020-Jan-11 06:30N 48°45' W 002°09'3812.7
2020-Jan-11 03:30N 49°22' W 002°21'511.0
2020-Jan-11 03:00N 49°25' W 002°14'612.6
2020-Jan-11 02:30N 49°31' W 002°10'1413.8
2020-Jan-11 01:30N 49°44' W 002°03'74 9.3
2020-Jan-10 17:30N 50°49' W 001°06'0 0.0
2020-Jan-10 17:00N 50°49' W 001°06'0 0.0
2020-Jan-10 15:30N 50°49' W 001°06'0 0.0
2020-Jan-10 12:30N 50°49' W 001°06'0 0.0
2020-Jan-10 10:30N 50°49' W 001°06'3 1.5
2020-Jan-10 08:30N 50°46' W 001°05'3 6.0
2020-Jan-10 08:00N 50°43' W 001°03'611.8
2020-Jan-10 07:30N 50°38' W 001°07'7312.2
2020-Jan-10 01:30N 49°36' W 002°07'4 8.6
2020-Jan-10 01:00N 49°32' W 002°10'2811.3
2020-Jan-09 22:31N 49°10' W 002°37'16 0.9
2020-Jan-09 03:30N 49°23' W 002°22'1313.4
2020-Jan-09 02:30N 49°33' W 002°09'8014.6
2020-Jan-08 21:01N 50°41' W 001°03'612.3
2020-Jan-08 20:31N 50°47' W 001°06'2 2.1
2020-Jan-08 19:30N 50°49' W 001°06'0 0.0
2020-Jan-08 19:00N 50°49' W 001°06'0 0.0
2020-Jan-08 18:00N 50°49' W 001°06'0 0.0
2020-Jan-08 17:30N 50°49' W 001°06'3 1.3
2020-Jan-08 15:30N 50°46' W 001°05'714.3
2020-Jan-08 15:00N 50°41' W 000°57'  
Track history (hours):
 
Tides and Currents Weather Stations Pressure Air Temp Water Temp Dewpoint Dewpoint Depression Visibility Wind Speed Wind Dir Waves Ship Positions

Bretagne

Operator: Brittany Ferries

Last reported at 2020-Jan-18 14:55 UTC. Time now 2020-Jan-18 15:20 UTC.
Position N 48°48' W 002°02'.

Length 151 m; beam 27 m.

Type: Ship. MMSI: 227286000.

Date/timePositionNaut miles runAvg speedWind from/ knotsBaromVisibWave heightAir tempDewpointWater temp
2020-Jan-18 14:55N 48°48' W 002°02'7 0.9
2020-Jan-18 06:28N 48°48' W 002°13'511.5
2020-Jan-18 06:00N 48°52' W 002°18'2814.1
2020-Jan-18 04:01N 49°19' W 002°27'2814.0
2020-Jan-18 02:01N 49°43' W 002°04'1111.1
2020-Jan-18 01:01N 49°49' W 001°49'5911.8
2020-Jan-17 20:00N 50°40' W 001°04'9 5.6
2020-Jan-17 18:27N 50°49' W 001°06'0 0.0
2020-Jan-17 17:28N 50°49' W 001°06'0 0.0
2020-Jan-17 16:27N 50°49' W 001°06'0 0.0
2020-Jan-17 14:58N 50°49' W 001°06'0 0.0
2020-Jan-17 11:27N 50°49' W 001°06'2 0.7
2020-Jan-17 08:30N 50°47' W 001°06'15 9.8
2020-Jan-17 07:00N 50°33' W 001°12'5311.8
2020-Jan-17 02:31N 49°48' W 001°57'2211.2
2020-Jan-17 00:31N 49°28' W 002°13'50 4.1
2020-Jan-16 12:22N 48°38' W 002°02'0 0.0
2020-Jan-16 11:58N 48°38' W 002°02'0 0.0
2020-Jan-16 10:55N 48°38' W 002°02'41 6.4
2020-Jan-16 04:31N 49°15' W 002°31'612.1
2020-Jan-16 04:00N 49°21' W 002°29'815.4
2020-Jan-16 03:31N 49°24' W 002°18'1919.0
2020-Jan-16 02:31N 49°41' W 002°04'1717.1
2020-Jan-16 01:31N 49°54' W 001°47'3012.8
2020-Jan-15 23:08N 50°19' W 001°22'812.6
2020-Jan-15 22:29N 50°26' W 001°13'23 9.4
2020-Jan-15 20:00N 50°49' W 001°06'0 0.2
2020-Jan-15 19:30N 50°49' W 001°06'2 1.1
2020-Jan-15 18:00N 50°47' W 001°06'8 1.9
2020-Jan-15 14:00N 50°40' W 001°04'2 1.4
2020-Jan-15 12:30N 50°38' W 001°06'4 4.3
2020-Jan-15 11:30N 50°42' W 001°03'7 3.6
2020-Jan-15 09:30N 50°49' W 001°06'0 0.0
2020-Jan-15 08:30N 50°49' W 001°06'5811.1
2020-Jan-15 03:16N 49°57' W 001°47'1114.4
2020-Jan-15 02:30N 49°49' W 001°59'1414.3
2020-Jan-15 01:30N 49°36' W 002°10'2315.5
2020-Jan-15 00:00N 49°16' W 002°27'2911.7
2020-Jan-14 21:30N 48°47' W 002°31'7 9.3
2020-Jan-14 20:47N 48°45' W 002°21'6 0.4
2020-Jan-14 06:00N 48°50' W 002°16'917.2
2020-Jan-14 05:30N 48°57' W 002°23'12013.3
2020-Jan-13 20:31N 50°46' W 001°06'2 0.8
2020-Jan-13 18:00N 50°44' W 001°05'1212.4
2020-Jan-13 17:00N 50°32' W 001°09'8617.3
2020-Jan-13 12:00N 49°19' W 002°20'2120.6
2020-Jan-13 11:00N 48°59' W 002°23'18 4.0
2020-Jan-13 06:30N 48°44' W 002°07'2315.1
2020-Jan-13 05:01N 49°03' W 002°25'815.5
2020-Jan-13 04:31N 49°11' W 002°27'714.9
2020-Jan-13 04:01N 49°18' W 002°28'611.8
2020-Jan-13 03:31N 49°23' W 002°23'1912.9
2020-Jan-13 02:00N 49°39' W 002°06'815.3
2020-Jan-13 01:30N 49°46' W 002°00'6913.7
2020-Jan-12 20:31N 50°44' W 001°03'5 2.5
2020-Jan-12 18:28N 50°49' W 001°06'0 0.0
2020-Jan-12 17:28N 50°49' W 001°06'0 0.0
2020-Jan-12 16:28N 50°49' W 001°06'0 0.0
2020-Jan-12 15:58N 50°49' W 001°06'0 0.0
2020-Jan-12 15:28N 50°49' W 001°06'0 0.0
2020-Jan-12 12:28N 50°49' W 001°06'0 0.0
2020-Jan-12 11:28N 50°49' W 001°06'0 0.0
2020-Jan-12 10:28N 50°49' W 001°06'0 0.0
2020-Jan-12 09:00N 50°49' W 001°06'1 1.7
2020-Jan-12 08:30N 50°48' W 001°07'2312.3
2020-Jan-12 06:37N 50°26' W 001°16'5013.8
2020-Jan-12 03:00N 49°45' W 002°02'17 8.6
2020-Jan-12 01:00N 49°30' W 002°12'10 9.8
2020-Jan-12 00:00N 49°21' W 002°21'1414.2
2020-Jan-11 23:00N 49°11' W 002°35'815.6
2020-Jan-11 22:30N 49°04' W 002°40'1514.9
2020-Jan-11 21:30N 48°49' W 002°41'712.2
2020-Jan-11 20:57N 48°47' W 002°31'21 2.1
2020-Jan-11 10:53N 48°38' W 002°02'8 1.8
2020-Jan-11 06:30N 48°45' W 002°09'3812.7
2020-Jan-11 03:30N 49°22' W 002°21'511.0
2020-Jan-11 03:00N 49°25' W 002°14'612.6
2020-Jan-11 02:30N 49°31' W 002°10'1413.8
2020-Jan-11 01:30N 49°44' W 002°03'74 9.3
2020-Jan-10 17:30N 50°49' W 001°06'0 0.0
2020-Jan-10 17:00N 50°49' W 001°06'0 0.0
2020-Jan-10 15:30N 50°49' W 001°06'0 0.0
2020-Jan-10 12:30N 50°49' W 001°06'0 0.0
2020-Jan-10 10:30N 50°49' W 001°06'3 1.5
2020-Jan-10 08:30N 50°46' W 001°05'3 6.0
2020-Jan-10 08:00N 50°43' W 001°03'611.8
2020-Jan-10 07:30N 50°38' W 001°07'7312.2
2020-Jan-10 01:30N 49°36' W 002°07'4 8.6
2020-Jan-10 01:00N 49°32' W 002°10'2811.3
2020-Jan-09 22:31N 49°10' W 002°37'16 0.9
2020-Jan-09 03:30N 49°23' W 002°22'1313.4
2020-Jan-09 02:30N 49°33' W 002°09'8014.6
2020-Jan-08 21:01N 50°41' W 001°03'612.3
2020-Jan-08 20:31N 50°47' W 001°06'2 2.1
2020-Jan-08 19:30N 50°49' W 001°06'0 0.0
2020-Jan-08 19:00N 50°49' W 001°06'0 0.0
2020-Jan-08 18:00N 50°49' W 001°06'0 0.0
2020-Jan-08 17:30N 50°49' W 001°06'3 1.3
2020-Jan-08 15:30N 50°46' W 001°05'714.3
2020-Jan-08 15:00N 50°41' W 000°57'  

Dump ship's entire track history